createdAt,value
2022-11-12T00:02:34.820Z,103369.06
2022-11-12T00:05:20.979Z,103377.84
2022-11-12T00:08:07.427Z,103376.16
2022-11-12T00:10:53.682Z,103373.41
2022-11-12T00:13:40.089Z,103371.56
2022-11-12T00:16:26.470Z,103365.38
2022-11-12T00:19:12.861Z,103369.59
2022-11-12T00:21:59.219Z,103368.75
2022-11-12T00:24:45.331Z,103371.28
2022-11-12T00:27:33.540Z,103373.81
2022-11-12T00:30:19.634Z,103371.13
2022-11-12T00:33:06.910Z,103368.31
2022-11-12T00:35:53.328Z,103371.03
2022-11-12T00:38:39.754Z,103372.47
2022-11-12T00:41:26.127Z,103380.38
2022-11-12T00:44:12.436Z,103382.19
2022-11-12T00:46:58.352Z,103373.31
2022-11-12T00:49:44.348Z,103377.69
2022-11-12T00:52:30.601Z,103388.13
2022-11-12T00:55:16.646Z,103378.38
2022-11-12T00:58:02.994Z,103379.22
2022-11-12T01:00:49.306Z,103385.25
2022-11-12T01:03:36.206Z,103379.81
2022-11-12T01:06:23.848Z,103377.25
2022-11-12T01:09:10.032Z,103371.91
2022-11-12T01:11:56.186Z,103376.19
2022-11-12T01:14:42.473Z,103369.22
2022-11-12T01:17:29.080Z,103359.28
2022-11-12T01:20:15.498Z,103363.66
2022-11-12T01:23:01.935Z,103366.13
2022-11-12T01:25:48.217Z,103366.19
2022-11-12T01:28:34.739Z,103369.59
2022-11-12T01:31:27.245Z,103377.56
2022-11-12T01:34:13.376Z,103367.78
2022-11-12T01:36:59.647Z,103370.31
2022-11-12T01:39:45.950Z,103372.22
2022-11-12T01:42:33.490Z,103374.63
2022-11-12T01:45:20.328Z,103372.84
2022-11-12T01:48:06.482Z,103357.09
2022-11-12T01:50:54.090Z,103365.84
2022-11-12T01:53:47.940Z,103375.59
2022-11-12T01:56:34.569Z,103371.03
2022-11-12T01:59:29.870Z,103356.13
2022-11-12T02:02:16.172Z,103361.34
2022-11-12T02:05:06.509Z,103366.56
2022-11-12T02:07:53.759Z,103370.16
2022-11-12T02:10:40.841Z,103370.81
2022-11-12T02:13:45.687Z,103364.66
2022-11-12T02:16:41.988Z,103357.81
2022-11-12T02:19:28.179Z,103356.91
2022-11-12T02:22:14.275Z,103360.44
2022-11-12T02:25:00.728Z,103349.84
2022-11-12T02:27:51.726Z,103353.22
2022-11-12T02:30:48.043Z,103342.56
2022-11-12T02:33:34.083Z,103343.47
2022-11-12T02:36:20.559Z,103345.19
2022-11-12T02:39:07.143Z,103344.16
2022-11-12T02:41:53.414Z,103350.09
2022-11-12T02:44:39.546Z,103345.72
2022-11-12T02:47:25.835Z,103335.97
2022-11-12T02:50:12.545Z,103335.19
2022-11-12T02:52:58.565Z,103342.19
2022-11-12T02:55:44.992Z,103343.16
2022-11-12T02:58:31.081Z,103344.66
2022-11-12T03:01:17.274Z,103349.03
2022-11-12T03:04:03.691Z,103344.47
2022-11-12T03:06:49.729Z,103348.00
2022-11-12T03:09:35.715Z,103346.25
2022-11-12T03:12:21.892Z,103348.00
2022-11-12T03:15:08.278Z,103337.22
2022-11-12T03:17:54.803Z,103340.75
2022-11-12T03:20:41.003Z,103341.66
2022-11-12T03:23:28.071Z,103338.91
2022-11-12T03:26:14.590Z,103338.97
2022-11-12T03:29:00.852Z,103342.34
2022-11-12T03:31:46.965Z,103340.66
2022-11-12T03:34:33.405Z,103341.53
2022-11-12T03:37:19.408Z,103337.19
2022-11-12T03:40:06.497Z,103335.19
2022-11-12T03:42:53.761Z,103335.31
2022-11-12T03:45:40.020Z,103335.31
2022-11-12T03:48:26.504Z,103336.38
2022-11-12T03:51:16.195Z,103336.22
2022-11-12T03:54:02.481Z,103328.31
2022-11-12T03:56:48.575Z,103327.53
2022-11-12T03:59:34.875Z,103329.44
2022-11-12T04:02:21.258Z,103340.94
2022-11-12T04:05:27.589Z,103345.84
2022-11-12T04:08:37.860Z,103335.44
2022-11-12T04:11:24.294Z,103338.84
2022-11-12T04:14:10.270Z,103348.53
2022-11-12T04:17:15.445Z,103337.09
2022-11-12T04:20:20.425Z,103348.53
2022-11-12T04:23:06.631Z,103340.66
2022-11-12T04:26:11.358Z,103347.66
2022-11-12T04:29:16.365Z,103348.47
2022-11-12T04:32:02.623Z,103349.38
2022-11-12T04:34:48.947Z,103352.78
2022-11-12T04:37:45.820Z,103348.50
2022-11-12T04:40:51.143Z,103339.66
2022-11-12T04:43:56.395Z,103348.28
2022-11-12T04:46:42.822Z,103345.66
2022-11-12T04:49:29.496Z,103343.13
2022-11-12T04:52:16.214Z,103344.94
2022-11-12T04:55:02.523Z,103337.88
2022-11-12T04:57:48.731Z,103340.44
2022-11-12T05:00:35.468Z,103337.81
2022-11-12T05:03:21.622Z,103346.50
2022-11-12T05:06:27.931Z,103337.66
2022-11-12T05:09:14.158Z,103320.97
2022-11-12T05:12:00.523Z,103328.13
2022-11-12T05:14:46.766Z,103326.22
2022-11-12T05:17:32.951Z,103318.31
2022-11-12T05:20:19.504Z,103315.75
2022-11-12T05:23:07.385Z,103310.44
2022-11-12T05:25:54.198Z,103300.66
2022-11-12T05:28:40.274Z,103306.66
2022-11-12T05:31:26.265Z,103305.81
2022-11-12T05:34:13.009Z,103300.47
2022-11-12T05:36:59.966Z,103301.25
2022-11-12T05:39:46.312Z,103307.22
2022-11-12T05:42:32.494Z,103309.69
2022-11-12T05:45:18.932Z,103307.06
2022-11-12T05:48:05.355Z,103309.47
2022-11-12T05:51:11.919Z,103312.06
2022-11-12T05:54:00.184Z,103316.38
2022-11-12T05:56:46.719Z,103311.88
2022-11-12T05:59:32.798Z,103315.97
2022-11-12T06:02:18.847Z,103313.34
2022-11-12T06:05:05.374Z,103312.41
2022-11-12T06:07:51.454Z,103312.38
2022-11-12T06:10:37.727Z,103311.41
2022-11-12T06:13:25.914Z,103322.59
2022-11-12T06:16:12.702Z,103324.25
2022-11-12T06:18:59.142Z,103322.25
2022-11-12T06:21:45.491Z,103317.97
2022-11-12T06:24:34.955Z,103317.91
2022-11-12T06:27:21.733Z,103325.84
2022-11-12T06:30:09.215Z,103318.03
2022-11-12T06:32:55.623Z,103318.91
2022-11-12T06:35:43.124Z,103322.38
2022-11-12T06:38:36.774Z,103328.47
2022-11-12T06:41:23.182Z,103328.34
2022-11-12T06:44:09.467Z,103326.63
2022-11-12T06:46:55.818Z,103325.66
2022-11-12T06:49:41.827Z,103328.34
2022-11-12T06:52:27.891Z,103330.09
2022-11-12T06:55:13.968Z,103328.22
2022-11-12T06:58:00.452Z,103326.56
2022-11-12T07:00:46.813Z,103335.53
2022-11-12T07:03:33.203Z,103337.97
2022-11-12T07:06:20.658Z,103344.25
2022-11-12T07:09:07.250Z,103335.53
2022-11-12T07:11:53.568Z,103337.38
2022-11-12T07:14:39.585Z,103343.63
2022-11-12T07:17:25.978Z,103340.03
2022-11-12T07:20:12.914Z,103350.53
2022-11-12T07:23:02.431Z,103359.41
2022-11-12T07:25:56.629Z,103365.56
2022-11-12T07:28:43.604Z,103368.38
2022-11-12T07:31:29.957Z,103371.97
2022-11-12T07:34:15.934Z,103367.56
2022-11-12T07:37:01.979Z,103367.63
2022-11-12T07:39:48.048Z,103367.63
2022-11-12T07:42:35.692Z,103359.09
2022-11-12T07:45:22.053Z,103362.63
2022-11-12T07:48:08.560Z,103361.78
2022-11-12T07:51:01.846Z,103363.66
2022-11-12T07:53:50.907Z,103358.53
2022-11-12T07:56:39.850Z,103360.31
2022-11-12T07:59:25.842Z,103363.97
2022-11-12T08:02:12.102Z,103363.22
2022-11-12T08:04:58.106Z,103369.50
2022-11-12T08:07:44.323Z,103372.31
2022-11-12T08:10:30.672Z,103371.56
2022-11-12T08:13:16.735Z,103375.19
2022-11-12T08:16:03.296Z,103371.78
2022-11-12T08:18:50.053Z,103376.34
2022-11-12T08:21:36.324Z,103373.84
2022-11-12T08:24:22.494Z,103375.72
2022-11-12T08:27:08.457Z,103380.25
2022-11-12T08:29:54.779Z,103376.97
2022-11-12T08:32:40.858Z,103377.09
2022-11-12T08:35:28.778Z,103374.69
2022-11-12T08:38:15.268Z,103378.34
2022-11-12T08:41:07.526Z,103383.84
2022-11-12T08:43:53.964Z,103385.84
2022-11-12T08:46:39.952Z,103380.88
2022-11-12T08:49:26.422Z,103382.81
2022-11-12T08:52:12.507Z,103377.13
2022-11-12T08:54:58.552Z,103382.84
2022-11-12T08:57:44.918Z,103383.91
2022-11-12T09:00:38.385Z,103377.25
2022-11-12T09:03:26.336Z,103378.47
2022-11-12T09:06:12.540Z,103381.47
2022-11-12T09:08:58.792Z,103375.63
2022-11-12T09:11:45.257Z,103374.25
2022-11-12T09:14:31.375Z,103369.22
2022-11-12T09:17:17.483Z,103380.13
2022-11-12T09:20:03.734Z,103367.22
2022-11-12T09:22:50.150Z,103368.53
2022-11-12T09:25:36.814Z,103368.78
2022-11-12T09:28:22.969Z,103375.47
2022-11-12T09:31:09.454Z,103384.84
2022-11-12T09:33:55.541Z,103379.38
2022-11-12T09:36:41.713Z,103381.06
2022-11-12T09:39:28.447Z,103380.91
2022-11-12T09:42:19.349Z,103371.97
2022-11-12T09:45:30.325Z,103369.03
2022-11-12T09:48:42.464Z,103372.47
2022-11-12T09:51:34.555Z,103368.44
2022-11-12T09:54:31.556Z,103372.41
2022-11-12T09:57:17.886Z,103377.25
2022-11-12T10:00:16.687Z,103371.34
2022-11-12T10:03:14.739Z,103374.22
2022-11-12T10:06:19.322Z,103378.88
2022-11-12T10:09:28.575Z,103376.47
2022-11-12T10:12:44.179Z,103373.19
2022-11-12T10:16:02.008Z,103367.16
2022-11-12T10:19:14.178Z,103369.09
2022-11-12T10:23:05.246Z,103356.91
2022-11-12T10:25:58.071Z,103362.38
2022-11-12T10:29:11.078Z,103357.88
2022-11-12T10:31:57.238Z,103359.53
2022-11-12T10:34:43.507Z,103356.78
2022-11-12T10:37:55.198Z,103354.00
2022-11-12T10:40:42.614Z,103351.16
2022-11-12T10:43:29.054Z,103348.31
2022-11-12T10:46:22.346Z,103346.47
2022-11-12T10:49:14.715Z,103338.44
2022-11-12T10:52:01.145Z,103339.31
2022-11-12T10:54:52.359Z,103341.94
2022-11-12T10:57:41.005Z,103336.44
2022-11-12T11:00:27.252Z,103324.69
2022-11-12T11:03:25.542Z,103322.97
2022-11-12T11:06:14.736Z,103329.31
2022-11-12T11:09:13.110Z,103322.28
2022-11-12T11:11:59.951Z,103322.47
2022-11-12T11:14:46.305Z,103325.22
2022-11-12T11:17:32.758Z,103315.56
2022-11-12T11:20:29.191Z,103320.16
2022-11-12T11:23:25.665Z,103319.41
2022-11-12T11:26:51.491Z,103315.84
2022-11-12T11:29:50.508Z,103316.84
2022-11-12T11:33:14.044Z,103307.94
2022-11-12T11:36:07.390Z,103302.59
2022-11-12T11:39:38.080Z,103315.09
2022-11-12T11:42:56.648Z,103299.94
2022-11-12T11:45:53.269Z,103296.38
2022-11-12T11:49:10.888Z,103299.06
2022-11-12T11:52:12.498Z,103301.78
2022-11-12T11:55:28.442Z,103299.94
2022-11-12T11:58:42.288Z,103298.16
2022-11-12T12:02:15.330Z,103295.50
2022-11-12T12:05:38.246Z,103291.09
2022-11-12T12:08:51.752Z,103291.09
2022-11-12T12:12:13.361Z,103285.69
2022-11-12T12:15:28.231Z,103286.59
2022-11-12T12:19:01.888Z,103279.47
2022-11-12T12:21:51.621Z,103279.47
2022-11-12T12:25:03.592Z,103268.78
2022-11-12T12:28:17.247Z,103270.56
2022-11-12T12:31:22.741Z,103266.91
2022-11-12T12:34:24.337Z,103256.25
2022-11-12T12:37:43.684Z,103253.59
2022-11-12T12:40:37.376Z,103249.13
2022-11-12T12:43:48.569Z,103253.53
2022-11-12T12:46:59.411Z,103244.66
2022-11-12T12:49:48.394Z,103242.84
2022-11-12T12:53:15.742Z,103240.16
2022-11-12T12:56:07.478Z,103229.47
2022-11-12T12:58:55.107Z,103224.13
2022-11-12T13:01:41.567Z,103218.78
2022-11-12T13:04:54.194Z,103217.88
2022-11-12T13:07:48.167Z,103208.97
2022-11-12T13:10:41.645Z,103210.78
2022-11-12T13:13:37.316Z,103200.97
2022-11-12T13:17:04.100Z,103207.19
2022-11-12T13:19:53.296Z,103206.31
2022-11-12T13:22:39.453Z,103196.53
2022-11-12T13:25:28.391Z,103203.63
2022-11-12T13:28:14.917Z,103205.41
2022-11-12T13:31:03.687Z,103197.41
2022-11-12T13:33:50.187Z,103197.41
2022-11-12T13:36:36.457Z,103199.16
2022-11-12T13:39:22.971Z,103192.06
2022-11-12T13:42:54.083Z,103191.19
2022-11-12T13:46:00.368Z,103195.63
2022-11-12T13:49:09.559Z,103191.19
2022-11-12T13:51:56.684Z,103196.50
2022-11-12T13:54:42.971Z,103186.72
2022-11-12T13:57:32.167Z,103186.72
2022-11-12T14:00:21.497Z,103184.94
2022-11-12T14:03:08.673Z,103184.09
2022-11-12T14:05:55.635Z,103177.84
2022-11-12T14:09:12.459Z,103178.75
2022-11-12T14:12:07.054Z,103180.53
2022-11-12T14:15:18.087Z,103172.53
2022-11-12T14:18:33.391Z,103162.72
2022-11-12T14:21:20.457Z,103160.03
2022-11-12T14:24:10.813Z,103170.75
2022-11-12T14:26:57.014Z,103160.94
2022-11-12T14:29:43.939Z,103160.06
2022-11-12T14:32:37.138Z,103153.88
2022-11-12T14:35:37.708Z,103157.44
2022-11-12T14:38:39.753Z,103145.00
2022-11-12T14:41:35.319Z,103142.38
2022-11-12T14:44:28.550Z,103143.25
2022-11-12T14:47:18.806Z,103135.25
2022-11-12T14:50:05.985Z,103140.59
2022-11-12T14:53:20.477Z,103141.53
2022-11-12T14:56:23.771Z,103138.00
2022-11-12T14:59:15.715Z,103148.72
2022-11-12T15:02:34.259Z,103144.28
2022-11-12T15:05:30.188Z,103143.44
2022-11-12T15:08:30.879Z,103137.25
2022-11-12T15:11:44.942Z,103139.94
2022-11-12T15:14:31.763Z,103138.16
2022-11-12T15:17:29.277Z,103132.88
2022-11-12T15:20:18.210Z,103138.25
2022-11-12T15:23:04.919Z,103132.00
2022-11-12T15:26:02.132Z,103135.59
2022-11-12T15:29:10.374Z,103128.50
2022-11-12T15:32:23.874Z,103131.19
2022-11-12T15:35:37.944Z,103130.28
2022-11-12T15:38:35.872Z,103130.25
2022-11-12T15:41:29.314Z,103135.63
2022-11-12T15:44:15.452Z,103133.84
2022-11-12T15:47:02.299Z,103129.41
2022-11-12T15:49:50.793Z,103127.66
2022-11-12T15:52:36.913Z,103131.19
2022-11-12T15:55:23.343Z,103130.31
2022-11-12T15:58:35.133Z,103137.41
2022-11-12T16:01:21.872Z,103122.28
2022-11-12T16:04:09.360Z,103116.09
2022-11-12T16:06:55.564Z,103116.94
2022-11-12T16:09:41.951Z,103123.16
2022-11-12T16:12:28.209Z,103119.59
2022-11-12T16:15:18.271Z,103127.59
2022-11-12T16:18:04.848Z,103130.22
2022-11-12T16:20:51.199Z,103125.78
2022-11-12T16:23:37.430Z,103119.56
2022-11-12T16:26:28.726Z,103121.31
2022-11-12T16:29:16.450Z,103123.06
2022-11-12T16:32:04.422Z,103132.81
2022-11-12T16:34:50.658Z,103131.88
2022-11-12T16:37:39.789Z,103136.31
2022-11-12T16:40:29.645Z,103138.06
2022-11-12T16:43:15.687Z,103138.91
2022-11-12T16:46:02.042Z,103131.75
2022-11-12T16:48:48.143Z,103127.28
2022-11-12T16:51:34.376Z,103130.81
2022-11-12T16:54:20.449Z,103130.75
2022-11-12T16:57:06.596Z,103136.03
2022-11-12T16:59:52.920Z,103131.56
2022-11-12T17:02:43.806Z,103128.84
2022-11-12T17:05:32.252Z,103133.28
2022-11-12T17:08:18.458Z,103134.13
2022-11-12T17:11:09.630Z,103127.84
2022-11-12T17:13:55.549Z,103132.25
2022-11-12T17:16:41.571Z,103135.75
2022-11-12T17:19:27.682Z,103122.44
2022-11-12T17:22:13.908Z,103140.09
2022-11-12T17:25:00.382Z,103132.97
2022-11-12T17:27:46.749Z,103138.22
2022-11-12T17:30:32.700Z,103140.88
2022-11-12T17:33:18.778Z,103135.47
2022-11-12T17:36:07.013Z,103134.56
2022-11-12T17:38:59.325Z,103129.19
2022-11-12T17:41:45.718Z,103131.78
2022-11-12T17:44:31.858Z,103132.66
2022-11-12T17:47:17.819Z,103129.06
2022-11-12T17:50:04.483Z,103123.72
2022-11-12T17:52:50.935Z,103121.00
2022-11-12T17:55:37.097Z,103114.75
2022-11-12T17:58:23.161Z,103123.59
2022-11-12T18:01:15.252Z,103124.41
2022-11-12T18:04:01.944Z,103127.91
2022-11-12T18:06:48.093Z,103129.69
2022-11-12T18:09:34.071Z,103131.38
2022-11-12T18:12:20.175Z,103141.09
2022-11-12T18:15:07.246Z,103128.63
2022-11-12T18:17:53.607Z,103135.63
2022-11-12T18:20:42.348Z,103135.66
2022-11-12T18:23:28.973Z,103132.94
2022-11-12T18:26:18.151Z,103131.09
2022-11-12T18:29:04.515Z,103130.16
2022-11-12T18:31:50.846Z,103121.25
2022-11-12T18:34:41.626Z,103125.66
2022-11-12T18:37:27.769Z,103133.56
2022-11-12T18:40:14.102Z,103131.75
2022-11-12T18:43:00.453Z,103136.13
2022-11-12T18:45:58.963Z,103134.31
2022-11-12T18:48:44.971Z,103135.13
2022-11-12T18:51:30.875Z,103133.31
2022-11-12T18:54:16.963Z,103125.34
2022-11-12T18:57:02.997Z,103126.19
2022-11-12T18:59:51.920Z,103127.00
2022-11-12T19:02:38.135Z,103126.06
2022-11-12T19:05:24.227Z,103123.34
2022-11-12T19:08:10.505Z,103118.00
2022-11-12T19:11:01.902Z,103121.50
2022-11-12T19:13:52.266Z,103118.78
2022-11-12T19:16:44.688Z,103120.53
2022-11-12T19:19:30.778Z,103115.13
2022-11-12T19:22:16.781Z,103124.81
2022-11-12T19:25:02.978Z,103124.78
2022-11-12T19:27:49.239Z,103129.19
2022-11-12T19:30:35.558Z,103130.00
2022-11-12T19:33:21.755Z,103125.53
2022-11-12T19:36:13.344Z,103122.84
2022-11-12T19:39:02.467Z,103120.16
2022-11-12T19:41:48.663Z,103114.78
2022-11-12T19:44:35.238Z,103124.47
2022-11-12T19:47:21.595Z,103119.97
2022-11-12T19:50:08.247Z,103128.78
2022-11-12T19:52:54.715Z,103117.28
2022-11-12T19:55:41.443Z,103122.53
2022-11-12T19:58:27.883Z,103119.88
2022-11-12T20:01:17.576Z,103120.69
2022-11-12T20:04:04.132Z,103112.72
2022-11-12T20:06:50.402Z,103109.16
2022-11-12T20:09:36.390Z,103105.56
2022-11-12T20:12:24.269Z,103108.16
2022-11-12T20:15:11.115Z,103101.06
2022-11-12T20:17:57.228Z,103107.22
2022-11-12T20:20:55.437Z,103102.75
2022-11-12T20:23:43.032Z,103102.69
2022-11-12T20:26:29.497Z,103102.63
2022-11-12T20:29:15.675Z,103100.88
2022-11-12T20:32:02.872Z,103097.34
2022-11-12T20:34:49.220Z,103078.78
2022-11-12T20:37:35.123Z,103086.66
2022-11-12T20:40:21.419Z,103082.25
2022-11-12T20:43:07.900Z,103076.00
2022-11-12T20:45:54.366Z,103078.63
2022-11-12T20:48:43.616Z,103074.16
2022-11-12T20:51:30.176Z,103079.38
2022-11-12T20:54:16.535Z,103075.88
2022-11-12T20:57:03.178Z,103071.41
2022-11-12T20:59:51.515Z,103068.69
2022-11-12T21:02:37.794Z,103071.31
2022-11-12T21:05:24.119Z,103079.28
2022-11-12T21:08:10.164Z,103073.81
2022-11-12T21:10:58.554Z,103072.06
2022-11-12T21:13:44.984Z,103072.94
2022-11-12T21:16:31.450Z,103075.59
2022-11-12T21:19:17.555Z,103060.50
2022-11-12T21:22:03.792Z,103060.47
2022-11-12T21:24:49.992Z,103059.63
2022-11-12T21:27:36.039Z,103067.50
2022-11-12T21:30:22.071Z,103052.38
2022-11-12T21:33:08.268Z,103057.66
2022-11-12T21:35:54.366Z,103052.31
2022-11-12T21:38:41.382Z,103048.75
2022-11-12T21:41:29.722Z,103049.56
2022-11-12T21:44:15.959Z,103047.75
2022-11-12T21:47:02.659Z,103043.34
2022-11-12T21:49:48.735Z,103049.44
2022-11-12T21:52:35.074Z,103052.00
2022-11-12T21:55:21.231Z,103056.31
2022-11-12T21:58:07.668Z,103063.34
2022-11-12T22:00:53.586Z,103057.16
2022-11-12T22:03:40.138Z,103065.94
2022-11-12T22:06:29.248Z,103061.44
2022-11-12T22:09:16.099Z,103066.75
2022-11-12T22:12:02.077Z,103054.34
2022-11-12T22:14:48.550Z,103049.00
2022-11-12T22:17:34.627Z,103058.59
2022-11-12T22:20:21.075Z,103065.63
2022-11-12T22:23:07.187Z,103061.25
2022-11-12T22:25:57.580Z,103056.78
2022-11-12T22:28:44.631Z,103047.03
2022-11-12T22:31:33.442Z,103044.34
2022-11-12T22:34:19.702Z,103046.06
2022-11-12T22:37:05.681Z,103047.81
2022-11-12T22:39:51.765Z,103052.13
2022-11-12T22:42:37.902Z,103047.72
2022-11-12T22:45:24.023Z,103037.13
2022-11-12T22:48:10.570Z,103043.28
2022-11-12T22:51:05.989Z,103032.63
2022-11-12T22:54:05.032Z,103030.00
2022-11-12T22:56:51.445Z,103031.78
2022-11-12T22:59:37.567Z,103040.41
2022-11-12T23:02:24.186Z,103033.47
2022-11-12T23:05:10.581Z,103029.09
2022-11-12T23:07:56.841Z,103036.97
2022-11-12T23:10:45.835Z,103029.84
2022-11-12T23:13:33.004Z,103029.84
2022-11-12T23:16:25.931Z,103034.22
2022-11-12T23:19:12.098Z,103028.94
2022-11-12T23:21:58.669Z,103031.56
2022-11-12T23:24:44.827Z,103030.63
2022-11-12T23:27:31.034Z,103027.09
2022-11-12T23:30:17.436Z,103026.97
2022-11-12T23:33:04.399Z,103029.56
2022-11-12T23:35:50.764Z,103034.81
2022-11-12T23:38:36.961Z,103032.19
2022-11-12T23:41:25.854Z,103028.59
2022-11-12T23:44:12.190Z,103031.22
2022-11-12T23:46:58.567Z,103026.78
2022-11-12T23:49:44.680Z,103025.91
2022-11-12T23:52:30.779Z,103017.94
2022-11-12T23:55:16.945Z,103020.53
2022-11-12T23:58:03.378Z,103009.03
